Aérodrome :
LOGIN :

S'inscrire | Disclaimer

   EN    FR    IT 

 










Légende :    VFR   VFR Marginal   IFR   IFR Intensif   IFR Très Intensif
Visi : 
Plafond : 
>= 8 km
>= 3000ft
5 à 8 km
1000 à 3000 ft
1500m à 5 km
500 à 1000 ft
800 à 1500m
200 à 500 ft
< 800m
< 200 ft
Symboles :   Orages  Brouillard  Fortes neiges  Fortes précipitations  Vent > 20 kt
SIGMETs :   Divers  Orages  Givrage  Turbulence  Onde Orograph.  Cendres Volcan.






- Altitude de l'aérodrome : 485 ft
- Code IATA : QSA


LELL - Sabadell

DERNIER METAR :
  • 231430Z 25014G26KT 200V320 9999 FEW045 14/03 Q1006

METARs EXPIRÉS :
  • 231400Z 26017G28KT 230V300 9999 FEW045 13/03 Q1007
  • 231330Z 25017G28KT 210V300 9999 FEW045 13/03 Q1007
  • 231300Z 25017G27KT 230V290 9999 FEW045 13/03 Q1007
  • 231230Z 25015G28KT 220V290 9999 FEW045 13/03 Q1007
  • 231200Z 25012KT 190V290 9999 FEW045 13/03 Q1008
  • 231130Z 26014G25KT 200V300 9999 FEW045 12/03 Q1008

TAF TAF LELL
Valide du 23 à 15h jusqu'au 24 à 15h UTC


231400Z 2315/2415 27009KT 9999 FEW020 TX15/2413Z TN07/2406Z
TEMPO 2315/2319 27018G33KT
TEMPO 2318/2322 RA BKN040
TEMPO 2402/2409 30024G47KT



MET'MAP, la Météo Aéronautique d'un coup d'oeil ! - Copyright ORBIFLY Décembre 2007 - Disclaimer

ORBIFLY MET'MAP TEAM :

Programmation & Développement : Alexandra Zaïnal
Sur une idée originale de : Baudouin d'Aumeries
Assistance à la programmation : Marc-Olivier Méhu
Soutien technique & logistique : Manuel Goepfert

Contact : metmap@orbifly.com




SOURCES & CREDITS :

   NOAA